sensor_id;sensor_type;location;lat;lon;timestamp;pressure;altitude;pressure_sealevel;temperature;humidity
45255;BME280;30989;52.078;21.014;2023-02-01T00:01:41;164127.31;;;1.44;100.00
45255;BME280;30989;52.078;21.014;2023-02-01T00:04:06;164095.38;;;1.32;100.00
45255;BME280;30989;52.078;21.014;2023-02-01T00:06:31;164111.34;;;1.38;100.00
45255;BME280;30989;52.078;21.014;2023-02-01T00:08:57;164100.69;;;1.34;100.00
45255;BME280;30989;52.078;21.014;2023-02-01T00:11:23;164103.34;;;1.35;100.00
45255;BME280;30989;52.078;21.014;2023-02-01T00:13:49;164090.03;;;1.30;100.00
45255;BME280;30989;52.078;21.014;2023-02-01T00:16:21;164096.72;;;1.33;100.00
45255;BME280;30989;52.078;21.014;2023-02-01T00:18:49;164095.38;;;1.32;100.00
45255;BME280;30989;52.078;21.014;2023-02-01T00:21:16;164098.03;;;1.33;100.00
45255;BME280;30989;52.078;21.014;2023-02-01T00:23:42;164104.69;;;1.36;100.00
45255;BME280;30989;52.078;21.014;2023-02-01T00:26:14;164114.00;;;1.39;100.00
45255;BME280;30989;52.078;21.014;2023-02-01T00:28:40;164129.97;;;1.45;100.00
45255;BME280;30989;52.078;21.014;2023-02-01T00:31:06;164128.66;;;1.45;100.00
45255;BME280;30989;52.078;21.014;2023-02-01T00:33:32;164136.63;;;1.48;100.00
45255;BME280;30989;52.078;21.014;2023-02-01T00:36:02;164125.97;;;1.44;100.00
45255;BME280;30989;52.078;21.014;2023-02-01T00:38:29;164110.00;;;1.38;100.00
45255;BME280;30989;52.078;21.014;2023-02-01T00:40:56;164102.03;;;1.35;100.00
45255;BME280;30989;52.078;21.014;2023-02-01T00:43:26;164092.72;;;1.31;100.00
45255;BME280;30989;52.078;21.014;2023-02-01T00:45:52;164106.03;;;1.36;100.00
45255;BME280;30989;52.078;21.014;2023-02-01T00:48:17;164108.69;;;1.37;100.00
45255;BME280;30989;52.078;21.014;2023-02-01T00:50:43;164122.00;;;1.42;100.00
45255;BME280;30989;52.078;21.014;2023-02-01T00:53:09;164141.97;;;1.50;100.00
45255;BME280;30989;52.078;21.014;2023-02-01T00:55:35;164169.91;;;1.60;100.00
45255;BME280;30989;52.078;21.014;2023-02-01T00:58:00;164199.19;;;1.72;100.00
45255;BME280;30989;52.078;21.014;2023-02-01T01:00:26;164217.84;;;1.79;100.00
45255;BME280;30989;52.078;21.014;2023-02-01T01:02:51;164236.47;;;1.86;100.00
45255;BME280;30989;52.078;21.014;2023-02-01T01:05:17;164249.78;;;1.91;100.00
45255;BME280;30989;52.078;21.014;2023-02-01T01:07:42;164272.44;;;2.00;100.00
45255;BME280;30989;52.078;21.014;2023-02-01T01:10:08;164283.09;;;2.04;100.00
45255;BME280;30989;52.078;21.014;2023-02-01T01:12:34;164283.09;;;2.04;100.00
45255;BME280;30989;52.078;21.014;2023-02-01T01:14:59;164300.38;;;2.10;100.00
45255;BME280;30989;52.078;21.014;2023-02-01T01:17:25;164279.09;;;2.02;100.00
45255;BME280;30989;52.078;21.014;2023-02-01T01:19:50;164271.09;;;1.99;100.00
45255;BME280;30989;52.078;21.014;2023-02-01T01:22:16;164279.09;;;2.02;100.00
45255;BME280;30989;52.078;21.014;2023-02-01T01:24:41;164276.41;;;2.01;100.00
45255;BME280;30989;52.078;21.014;2023-02-01T01:27:07;164284.41;;;2.04;100.00
45255;BME280;30989;52.078;21.014;2023-02-01T01:29:32;164277.75;;;2.02;100.00
45255;BME280;30989;52.078;21.014;2023-02-01T01:31:58;164261.78;;;1.96;100.00
45255;BME280;30989;52.078;21.014;2023-02-01T01:34:23;164257.78;;;1.94;100.00
45255;BME280;30989;52.078;21.014;2023-02-01T01:36:49;164253.78;;;1.92;100.00
45255;BME280;30989;52.078;21.014;2023-02-01T01:39:14;164252.47;;;1.92;100.00
45255;BME280;30989;52.078;21.014;2023-02-01T01:41:40;164265.78;;;1.97;100.00
45255;BME280;30989;52.078;21.014;2023-02-01T01:47:18;164269.75;;;1.99;100.00
45255;BME280;30989;52.078;21.014;2023-02-01T01:49:44;164268.44;;;1.98;100.00
45255;BME280;30989;52.078;21.014;2023-02-01T01:52:10;164275.09;;;2.01;100.00
45255;BME280;30989;52.078;21.014;2023-02-01T01:54:45;164279.09;;;2.02;100.00
45255;BME280;30989;52.078;21.014;2023-02-01T01:57:18;164283.09;;;2.04;100.00
45255;BME280;30989;52.078;21.014;2023-02-01T02:00:04;164273.75;;;2.00;100.00
45255;BME280;30989;52.078;21.014;2023-02-01T02:02:40;164257.78;;;1.94;100.00
45255;BME280;30989;52.078;21.014;2023-02-01T02:05:07;164253.78;;;1.92;100.00
45255;BME280;30989;52.078;21.014;2023-02-01T02:07:40;164252.47;;;1.92;100.00
45255;BME280;30989;52.078;21.014;2023-02-01T02:10:09;164252.47;;;1.92;100.00
45255;BME280;30989;52.078;21.014;2023-02-01T02:12:39;164256.44;;;1.93;100.00
45255;BME280;30989;52.078;21.014;2023-02-01T02:15:07;164255.13;;;1.93;100.00
45255;BME280;30989;52.078;21.014;2023-02-01T02:17:55;164263.09;;;1.96;100.00
45255;BME280;30989;52.078;21.014;2023-02-01T02:26:06;164284.41;;;2.04;100.00
45255;BME280;30989;52.078;21.014;2023-02-01T02:34:18;164301.72;;;2.11;100.00
45255;BME280;30989;52.078;21.014;2023-02-01T02:42:39;164315.03;;;2.16;100.00
45255;BME280;30989;52.078;21.014;2023-02-01T02:46:00;164317.72;;;2.17;100.00
45255;BME280;30989;52.078;21.014;2023-02-01T02:48:56;164316.38;;;2.16;100.00
45255;BME280;30989;52.078;21.014;2023-02-01T02:51:28;164316.38;;;2.16;100.00
45255;BME280;30989;52.078;21.014;2023-02-01T02:54:18;164313.72;;;2.15;100.00
45255;BME280;30989;52.078;21.014;2023-02-01T02:57:07;164315.03;;;2.16;100.00
45255;BME280;30989;52.078;21.014;2023-02-01T02:59:55;164296.41;;;2.09;100.00
45255;BME280;30989;52.078;21.014;2023-02-01T03:02:41;164291.06;;;2.07;100.00
45255;BME280;30989;52.078;21.014;2023-02-01T03:05:32;164297.72;;;2.09;100.00
45255;BME280;30989;52.078;21.014;2023-02-01T03:13:21;164284.41;;;2.04;100.00
45255;BME280;30989;52.078;21.014;2023-02-01T03:15:57;164276.41;;;2.01;100.00
45255;BME280;30989;52.078;21.014;2023-02-01T03:20:51;164304.38;;;2.12;100.00
45255;BME280;30989;52.078;21.014;2023-02-01T03:23:21;164292.41;;;2.07;100.00
45255;BME280;30989;52.078;21.014;2023-02-01T03:25:50;164287.06;;;2.05;100.00
45255;BME280;30989;52.078;21.014;2023-02-01T03:28:18;164272.44;;;2.00;100.00
45255;BME280;30989;52.078;21.014;2023-02-01T03:30:47;164243.13;;;1.88;100.00
45255;BME280;30989;52.078;21.014;2023-02-01T03:33:17;164247.13;;;1.90;100.00
45255;BME280;30989;52.078;21.014;2023-02-01T03:38:30;164233.81;;;1.85;100.00
45255;BME280;30989;52.078;21.014;2023-02-01T03:41:08;164220.50;;;1.80;100.00
45255;BME280;30989;52.078;21.014;2023-02-01T03:46:22;164224.50;;;1.81;100.00
45255;BME280;30989;52.078;21.014;2023-02-01T03:48:51;164237.81;;;1.86;100.00
45255;BME280;30989;52.078;21.014;2023-02-01T03:51:19;164249.78;;;1.91;100.00
45255;BME280;30989;52.078;21.014;2023-02-01T03:53:47;164253.78;;;1.92;100.00
45255;BME280;30989;52.078;21.014;2023-02-01T03:56:17;164267.09;;;1.98;100.00
45255;BME280;30989;52.078;21.014;2023-02-01T03:58:43;164271.09;;;1.99;100.00
45255;BME280;30989;52.078;21.014;2023-02-01T04:01:26;164291.06;;;2.07;100.00
45255;BME280;30989;52.078;21.014;2023-02-01T04:03:52;164295.06;;;2.08;100.00
45255;BME280;30989;52.078;21.014;2023-02-01T04:06:18;164303.06;;;2.11;100.00
45255;BME280;30989;52.078;21.014;2023-02-01T04:08:43;164300.38;;;2.10;100.00
45255;BME280;30989;52.078;21.014;2023-02-01T04:11:09;164325.69;;;2.20;100.00
45255;BME280;30989;52.078;21.014;2023-02-01T04:13:35;164297.72;;;2.09;100.00
45255;BME280;30989;52.078;21.014;2023-02-01T04:16:01;164327.03;;;2.20;100.00
45255;BME280;30989;52.078;21.014;2023-02-01T04:18:26;164319.03;;;2.17;100.00
45255;BME280;30989;52.078;21.014;2023-02-01T04:20:51;164313.72;;;2.15;100.00
45255;BME280;30989;52.078;21.014;2023-02-01T04:23:17;164320.38;;;2.18;100.00
45255;BME280;30989;52.078;21.014;2023-02-01T04:25:42;164331.03;;;2.22;100.00
45255;BME280;30989;52.078;21.014;2023-02-01T04:28:08;164324.38;;;2.19;100.00
45255;BME280;30989;52.078;21.014;2023-02-01T04:30:34;164331.03;;;2.22;100.00
45255;BME280;30989;52.078;21.014;2023-02-01T04:33:00;164340.34;;;2.25;100.00
45255;BME280;30989;52.078;21.014;2023-02-01T04:35:25;164348.34;;;2.29;100.00
45255;BME280;30989;52.078;21.014;2023-02-01T04:37:51;164341.69;;;2.26;100.00
45255;BME280;30989;52.078;21.014;2023-02-01T04:40:16;164337.69;;;2.24;100.00
45255;BME280;30989;52.078;21.014;2023-02-01T04:42:42;164333.69;;;2.23;100.00
45255;BME280;30989;52.078;21.014;2023-02-01T04:45:07;164351.00;;;2.30;100.00
45255;BME280;30989;52.078;21.014;2023-02-01T04:47:34;164349.66;;;2.29;100.00
45255;BME280;30989;52.078;21.014;2023-02-01T04:49:59;164347.00;;;2.28;100.00
45255;BME280;30989;52.078;21.014;2023-02-01T04:52:25;164352.34;;;2.30;100.00
45255;BME280;30989;52.078;21.014;2023-02-01T04:54:51;164343.00;;;2.26;100.00
45255;BME280;30989;52.078;21.014;2023-02-01T04:57:19;164348.34;;;2.29;100.00
45255;BME280;30989;52.078;21.014;2023-02-01T04:59:45;164347.00;;;2.28;100.00
45255;BME280;30989;52.078;21.014;2023-02-01T05:02:10;164352.34;;;2.30;100.00
45255;BME280;30989;52.078;21.014;2023-02-01T05:04:36;164337.69;;;2.24;100.00
45255;BME280;30989;52.078;21.014;2023-02-01T05:07:01;164352.34;;;2.30;100.00
45255;BME280;30989;52.078;21.014;2023-02-01T05:09:26;164368.31;;;2.36;100.00
45255;BME280;30989;52.078;21.014;2023-02-01T05:11:52;164364.31;;;2.35;100.00
45255;BME280;30989;52.078;21.014;2023-02-01T05:14:49;164366.97;;;2.36;100.00
45255;BME280;30989;52.078;21.014;2023-02-01T05:17:15;164368.31;;;2.36;100.00
45255;BME280;30989;52.078;21.014;2023-02-01T05:19:40;164377.63;;;2.40;100.00
45255;BME280;30989;52.078;21.014;2023-02-01T05:22:06;164372.31;;;2.38;100.00
45255;BME280;30989;52.078;21.014;2023-02-01T05:24:32;164374.97;;;2.39;100.00
45255;BME280;30989;52.078;21.014;2023-02-01T05:26:57;164374.97;;;2.39;100.00
45255;BME280;30989;52.078;21.014;2023-02-01T05:29:23;164389.63;;;2.44;100.00
45255;BME280;30989;52.078;21.014;2023-02-01T05:31:49;164384.28;;;2.42;100.00
45255;BME280;30989;52.078;21.014;2023-02-01T05:34:15;164382.97;;;2.42;100.00
45255;BME280;30989;52.078;21.014;2023-02-01T05:36:40;164385.63;;;2.43;100.00
45255;BME280;30989;52.078;21.014;2023-02-01T05:39:06;164369.66;;;2.37;100.00
45255;BME280;30989;52.078;21.014;2023-02-01T05:41:31;164377.63;;;2.40;100.00
45255;BME280;30989;52.078;21.014;2023-02-01T05:43:57;164345.69;;;2.28;100.00
45255;BME280;30989;52.078;21.014;2023-02-01T05:46:22;164332.34;;;2.22;100.00
45255;BME280;30989;52.078;21.014;2023-02-01T05:48:48;164297.72;;;2.09;100.00
45255;BME280;30989;52.078;21.014;2023-02-01T05:51:13;164296.41;;;2.09;100.00
45255;BME280;30989;52.078;21.014;2023-02-01T05:53:39;164284.41;;;2.04;100.00
45255;BME280;30989;52.078;21.014;2023-02-01T05:56:05;164289.75;;;2.06;100.00
45255;BME280;30989;52.078;21.014;2023-02-01T05:58:30;164280.41;;;2.03;100.00
45255;BME280;30989;52.078;21.014;2023-02-01T06:00:59;164283.09;;;2.04;100.00
45255;BME280;30989;52.078;21.014;2023-02-01T06:03:25;164297.72;;;2.09;100.00
45255;BME280;30989;52.078;21.014;2023-02-01T06:05:50;164301.72;;;2.11;100.00
45255;BME280;30989;52.078;21.014;2023-02-01T06:08:15;164291.06;;;2.07;100.00
45255;BME280;30989;52.078;21.014;2023-02-01T06:10:42;164289.75;;;2.06;100.00
45255;BME280;30989;52.078;21.014;2023-02-01T06:13:08;164300.38;;;2.10;100.00
45255;BME280;30989;52.078;21.014;2023-02-01T06:15:33;164305.72;;;2.12;100.00
45255;BME280;30989;52.078;21.014;2023-02-01T06:17:59;164311.06;;;2.14;100.00
45255;BME280;30989;52.078;21.014;2023-02-01T06:20:24;164313.72;;;2.15;100.00
45255;BME280;30989;52.078;21.014;2023-02-01T06:22:50;164313.72;;;2.15;100.00
45255;BME280;30989;52.078;21.014;2023-02-01T06:25:15;164309.72;;;2.14;100.00
45255;BME280;30989;52.078;21.014;2023-02-01T06:27:42;164308.38;;;2.13;100.00
45255;BME280;30989;52.078;21.014;2023-02-01T06:30:10;164316.38;;;2.16;100.00
45255;BME280;30989;52.078;21.014;2023-02-01T06:32:39;164329.69;;;2.21;100.00
45255;BME280;30989;52.078;21.014;2023-02-01T06:35:07;164324.38;;;2.19;100.00
45255;BME280;30989;52.078;21.014;2023-02-01T06:37:33;164335.00;;;2.23;100.00
45255;BME280;30989;52.078;21.014;2023-02-01T06:39:59;164355.00;;;2.31;100.00
45255;BME280;30989;52.078;21.014;2023-02-01T06:42:25;164356.31;;;2.32;100.00
45255;BME280;30989;52.078;21.014;2023-02-01T06:44:51;164357.66;;;2.32;100.00
45255;BME280;30989;52.078;21.014;2023-02-01T06:47:16;164353.66;;;2.31;100.00
45255;BME280;30989;52.078;21.014;2023-02-01T06:49:42;164332.34;;;2.22;100.00
45255;BME280;30989;52.078;21.014;2023-02-01T06:52:07;164377.63;;;2.40;100.00
45255;BME280;30989;52.078;21.014;2023-02-01T06:54:33;164384.28;;;2.42;100.00
45255;BME280;30989;52.078;21.014;2023-02-01T06:56:59;164389.63;;;2.44;100.00
45255;BME280;30989;52.078;21.014;2023-02-01T06:59:25;164429.59;;;2.59;100.00
45255;BME280;30989;52.078;21.014;2023-02-01T07:01:50;164449.56;;;2.67;100.00
45255;BME280;30989;52.078;21.014;2023-02-01T07:04:16;164452.25;;;2.68;100.00
45255;BME280;30989;52.078;21.014;2023-02-01T07:06:41;164442.91;;;2.65;100.00
45255;BME280;30989;52.078;21.014;2023-02-01T07:09:07;164457.56;;;2.70;100.00
45255;BME280;30989;52.078;21.014;2023-02-01T07:11:33;164444.25;;;2.65;100.00
45255;BME280;30989;52.078;21.014;2023-02-01T07:13:59;164448.25;;;2.67;100.00
45255;BME280;30989;52.078;21.014;2023-02-01T07:16:25;164406.94;;;2.51;100.00
45255;BME280;30989;52.078;21.014;2023-02-01T07:18:51;164436.25;;;2.62;100.00
45255;BME280;30989;52.078;21.014;2023-02-01T07:21:18;164397.63;;;2.47;100.00
45255;BME280;30989;52.078;21.014;2023-02-01T07:23:43;164425.59;;;2.58;100.00
45255;BME280;30989;52.078;21.014;2023-02-01T07:26:11;164397.63;;;2.47;100.00
45255;BME280;30989;52.078;21.014;2023-02-01T07:28:40;164416.28;;;2.54;100.00
45255;BME280;30989;52.078;21.014;2023-02-01T07:31:10;164421.59;;;2.56;100.00
45255;BME280;30989;52.078;21.014;2023-02-01T07:33:37;164425.59;;;2.58;100.00
45255;BME280;30989;52.078;21.014;2023-02-01T07:36:04;164414.94;;;2.54;100.00
45255;BME280;30989;52.078;21.014;2023-02-01T07:38:31;164434.91;;;2.62;100.00
45255;BME280;30989;52.078;21.014;2023-02-01T07:41:00;164428.25;;;2.59;100.00
45255;BME280;30989;52.078;21.014;2023-02-01T07:43:27;164429.59;;;2.59;100.00
45255;BME280;30989;52.078;21.014;2023-02-01T07:45:53;164444.25;;;2.65;100.00
45255;BME280;30989;52.078;21.014;2023-02-01T07:48:23;164453.56;;;2.69;100.00
45255;BME280;30989;52.078;21.014;2023-02-01T07:51:08;164480.22;;;2.79;100.00
45255;BME280;30989;52.078;21.014;2023-02-01T07:53:35;164496.19;;;2.85;100.00
45255;BME280;30989;52.078;21.014;2023-02-01T07:56:01;164501.53;;;2.87;100.00
45255;BME280;30989;52.078;21.014;2023-02-01T07:58:27;164465.56;;;2.73;100.00
45255;BME280;30989;52.078;21.014;2023-02-01T08:00:53;164505.53;;;2.88;100.00
45255;BME280;30989;52.078;21.014;2023-02-01T08:03:37;164505.53;;;2.88;100.00
45255;BME280;30989;52.078;21.014;2023-02-01T08:06:03;164525.53;;;2.96;100.00
45255;BME280;30989;52.078;21.014;2023-02-01T08:08:29;164526.84;;;2.97;100.00
45255;BME280;30989;52.078;21.014;2023-02-01T08:11:01;164529.50;;;2.98;100.00
45255;BME280;30989;52.078;21.014;2023-02-01T08:13:27;164513.53;;;2.91;100.00
45255;BME280;30989;52.078;21.014;2023-02-01T08:15:52;164533.50;;;2.99;100.00
45255;BME280;30989;52.078;21.014;2023-02-01T08:18:22;164537.50;;;3.01;100.00
45255;BME280;30989;52.078;21.014;2023-02-01T08:20:47;164516.19;;;2.92;100.00
45255;BME280;30989;52.078;21.014;2023-02-01T08:23:13;164540.16;;;3.02;100.00
45255;BME280;30989;52.078;21.014;2023-02-01T08:25:38;164524.19;;;2.96;100.00
45255;BME280;30989;52.078;21.014;2023-02-01T08:28:07;164538.84;;;3.01;100.00
45255;BME280;30989;52.078;21.014;2023-02-01T08:30:32;164533.50;;;2.99;100.00
45255;BME280;30989;52.078;21.014;2023-02-01T08:32:58;164534.84;;;3.00;100.00
45255;BME280;30989;52.078;21.014;2023-02-01T08:35:23;164522.84;;;2.95;100.00
45255;BME280;30989;52.078;21.014;2023-02-01T08:37:50;164532.19;;;2.99;100.00
45255;BME280;30989;52.078;21.014;2023-02-01T08:40:16;164538.84;;;3.01;100.00
45255;BME280;30989;52.078;21.014;2023-02-01T08:42:42;164553.50;;;3.07;100.00
45255;BME280;30989;52.078;21.014;2023-02-01T08:45:27;164550.84;;;3.06;100.00
45255;BME280;30989;52.078;21.014;2023-02-01T08:47:54;164542.84;;;3.03;100.00
45255;BME280;30989;52.078;21.014;2023-02-01T08:50:21;164525.53;;;2.96;100.00
45255;BME280;30989;52.078;21.014;2023-02-01T08:52:47;164521.50;;;2.95;100.00
45255;BME280;30989;52.078;21.014;2023-02-01T08:55:14;164492.22;;;2.83;100.00
45255;BME280;30989;52.078;21.014;2023-02-01T08:57:40;164502.88;;;2.87;100.00
45255;BME280;30989;52.078;21.014;2023-02-01T09:00:09;164506.84;;;2.89;100.00
45255;BME280;30989;52.078;21.014;2023-02-01T09:02:36;164518.84;;;2.94;100.00
45255;BME280;30989;52.078;21.014;2023-02-01T09:05:02;164508.19;;;2.89;100.00
45255;BME280;30989;52.078;21.014;2023-02-01T09:07:28;164528.19;;;2.97;100.00
45255;BME280;30989;52.078;21.014;2023-02-01T09:09:54;164540.16;;;3.02;100.00
45255;BME280;30989;52.078;21.014;2023-02-01T09:12:22;164556.16;;;3.08;100.00
45255;BME280;30989;52.078;21.014;2023-02-01T09:14:47;164574.81;;;3.15;100.00
45255;BME280;30989;52.078;21.014;2023-02-01T09:17:12;164584.16;;;3.18;100.00
45255;BME280;30989;52.078;21.014;2023-02-01T09:19:39;164596.16;;;3.23;100.00
45255;BME280;30989;52.078;21.014;2023-02-01T09:22:05;164604.13;;;3.26;100.00
45255;BME280;30989;52.078;21.014;2023-02-01T09:24:30;164612.13;;;3.29;100.00
45255;BME280;30989;52.078;21.014;2023-02-01T09:26:56;164617.47;;;3.31;100.00
45255;BME280;30989;52.078;21.014;2023-02-01T09:29:21;164625.47;;;3.34;100.00
45255;BME280;30989;52.078;21.014;2023-02-01T09:31:47;164622.81;;;3.33;100.00
45255;BME280;30989;52.078;21.014;2023-02-01T09:34:12;164632.13;;;3.37;100.00
45255;BME280;30989;52.078;21.014;2023-02-01T09:36:38;164622.81;;;3.33;100.00
45255;BME280;30989;52.078;21.014;2023-02-01T09:39:03;164616.13;;;3.31;100.00
45255;BME280;30989;52.078;21.014;2023-02-01T09:44:57;164636.13;;;3.38;100.00
45255;BME280;30989;52.078;21.014;2023-02-01T09:47:29;164641.47;;;3.40;98.29
45255;BME280;30989;52.078;21.014;2023-02-01T09:50:03;164654.78;;;3.45;97.85
45255;BME280;30989;52.078;21.014;2023-02-01T09:52:40;164657.47;;;3.46;99.97
45255;BME280;30989;52.078;21.014;2023-02-01T09:55:15;164678.78;;;3.54;98.08
45255;BME280;30989;52.078;21.014;2023-02-01T09:57:53;164692.13;;;3.60;96.10
45255;BME280;30989;52.078;21.014;2023-02-01T10:00:27;164696.13;;;3.61;96.08
45255;BME280;30989;52.078;21.014;2023-02-01T10:02:55;164722.78;;;3.71;95.87
45255;BME280;30989;52.078;21.014;2023-02-01T10:09:20;164788.09;;;3.96;94.88
45255;BME280;30989;52.078;21.014;2023-02-01T10:14:37;164853.44;;;4.21;94.23
45255;BME280;30989;52.078;21.014;2023-02-01T10:17:06;164866.78;;;4.26;94.56
45255;BME280;30989;52.078;21.014;2023-02-01T10:22:40;164880.13;;;4.31;92.09
45255;BME280;30989;52.078;21.014;2023-02-01T10:27:48;164853.44;;;4.21;93.34
45255;BME280;30989;52.078;21.014;2023-02-01T10:30:25;164849.44;;;4.19;92.43
45255;BME280;30989;52.078;21.014;2023-02-01T10:33:01;164858.78;;;4.23;92.15
45255;BME280;30989;52.078;21.014;2023-02-01T10:35:36;164904.13;;;4.40;92.34
45255;BME280;30989;52.078;21.014;2023-02-01T10:38:02;164926.81;;;4.49;91.46
45255;BME280;30989;52.078;21.014;2023-02-01T10:40:31;164924.16;;;4.48;91.35
45255;BME280;30989;52.078;21.014;2023-02-01T10:43:01;164902.81;;;4.40;92.31
45255;BME280;30989;52.078;21.014;2023-02-01T10:45:29;164884.13;;;4.33;92.98
45255;BME280;30989;52.078;21.014;2023-02-01T10:47:57;164849.44;;;4.19;91.56
45255;BME280;30989;52.078;21.014;2023-02-01T10:50:37;164820.13;;;4.08;93.11
45255;BME280;30989;52.078;21.014;2023-02-01T10:53:28;164793.44;;;3.98;93.26
45255;BME280;30989;52.078;21.014;2023-02-01T10:55:57;164778.78;;;3.93;93.82
45255;BME280;30989;52.078;21.014;2023-02-01T10:58:31;164750.78;;;3.82;94.37
45255;BME280;30989;52.078;21.014;2023-02-01T11:01:00;164753.44;;;3.83;95.97
45255;BME280;30989;52.078;21.014;2023-02-01T11:03:33;164744.09;;;3.79;96.07
45255;BME280;30989;52.078;21.014;2023-02-01T11:06:01;164737.44;;;3.77;96.25
45255;BME280;30989;52.078;21.014;2023-02-01T11:08:27;164728.09;;;3.73;97.37
45255;BME280;30989;52.078;21.014;2023-02-01T11:11:01;164724.09;;;3.72;98.22
45255;BME280;30989;52.078;21.014;2023-02-01T11:13:37;164713.44;;;3.68;98.76
45255;BME280;30989;52.078;21.014;2023-02-01T11:16:04;164681.44;;;3.55;99.24
45255;BME280;30989;52.078;21.014;2023-02-01T11:18:33;164705.44;;;3.65;100.00
45255;BME280;30989;52.078;21.014;2023-02-01T11:21:00;164702.78;;;3.64;100.00
45255;BME280;30989;52.078;21.014;2023-02-01T11:23:27;164722.78;;;3.71;100.00
45255;BME280;30989;52.078;21.014;2023-02-01T11:26:09;164729.44;;;3.74;99.39
45255;BME280;30989;52.078;21.014;2023-02-01T11:28:38;164730.78;;;3.74;99.99
45255;BME280;30989;52.078;21.014;2023-02-01T11:31:08;164764.09;;;3.87;100.00
45255;BME280;30989;52.078;21.014;2023-02-01T11:33:37;164790.78;;;3.97;100.00
45255;BME280;30989;52.078;21.014;2023-02-01T11:36:15;164793.44;;;3.98;99.30
45255;BME280;30989;52.078;21.014;2023-02-01T11:38:50;164781.44;;;3.94;99.01
45255;BME280;30989;52.078;21.014;2023-02-01T11:41:27;164774.78;;;3.91;100.00
45255;BME280;30989;52.078;21.014;2023-02-01T11:43:56;164797.44;;;4.00;99.45
45255;BME280;30989;52.078;21.014;2023-02-01T11:46:28;164800.09;;;4.01;98.99
45255;BME280;30989;52.078;21.014;2023-02-01T11:48:55;164793.44;;;3.98;99.03
45255;BME280;30989;52.078;21.014;2023-02-01T11:51:42;164817.44;;;4.07;98.75
45255;BME280;30989;52.078;21.014;2023-02-01T11:54:17;164850.78;;;4.20;98.29
45255;BME280;30989;52.078;21.014;2023-02-01T11:56:49;164906.81;;;4.41;97.59
45255;BME280;30989;52.078;21.014;2023-02-01T12:11:00;165297.94;;;5.90;90.39
45255;BME280;30989;52.078;21.014;2023-02-01T12:16:04;165149.69;;;5.34;91.02
45255;BME280;30989;52.078;21.014;2023-02-01T12:21:52;164998.84;;;4.76;93.95
45255;BME280;30989;52.078;21.014;2023-02-01T12:33:08;164860.13;;;4.24;100.00
45255;BME280;30989;52.078;21.014;2023-02-01T12:35:40;164852.13;;;4.20;100.00
45255;BME280;30989;52.078;21.014;2023-02-01T12:38:44;164846.78;;;4.18;100.00
45255;BME280;30989;52.078;21.014;2023-02-01T12:44:03;164820.13;;;4.08;100.00
45255;BME280;30989;52.078;21.014;2023-02-01T12:46:43;164828.13;;;4.11;100.00
45255;BME280;30989;52.078;21.014;2023-02-01T12:49:15;164822.78;;;4.09;100.00
45255;BME280;30989;52.078;21.014;2023-02-01T12:51:45;164806.78;;;4.03;100.00
45255;BME280;30989;52.078;21.014;2023-02-01T12:54:31;164804.13;;;4.02;100.00
45255;BME280;30989;52.078;21.014;2023-02-01T12:57:02;164825.44;;;4.10;100.00
45255;BME280;30989;52.078;21.014;2023-02-01T12:59:44;164805.44;;;4.03;100.00
45255;BME280;30989;52.078;21.014;2023-02-01T13:05:16;164830.78;;;4.12;100.00
45255;BME280;30989;52.078;21.014;2023-02-01T13:10:36;164817.44;;;4.07;100.00
45255;BME280;30989;52.078;21.014;2023-02-01T13:13:19;164794.78;;;3.99;100.00
45255;BME280;30989;52.078;21.014;2023-02-01T13:18:38;164758.78;;;3.85;100.00
45255;BME280;30989;52.078;21.014;2023-02-01T13:21:16;164725.44;;;3.72;100.00
45255;BME280;30989;52.078;21.014;2023-02-01T13:23:45;164742.78;;;3.79;100.00
45255;BME280;30989;52.078;21.014;2023-02-01T13:26:12;164730.78;;;3.74;100.00
45255;BME280;30989;52.078;21.014;2023-02-01T13:28:58;164725.44;;;3.72;100.00
45255;BME280;30989;52.078;21.014;2023-02-01T13:37:54;164604.13;;;3.26;100.00
45255;BME280;30989;52.078;21.014;2023-02-01T13:40:44;164564.16;;;3.11;100.00
45255;BME280;30989;52.078;21.014;2023-02-01T13:45:44;164504.19;;;2.88;100.00
45255;BME280;30989;52.078;21.014;2023-02-01T13:48:17;164493.53;;;2.84;100.00
45255;BME280;30989;52.078;21.014;2023-02-01T13:50:51;164484.22;;;2.80;100.00
45255;BME280;30989;52.078;21.014;2023-02-01T13:53:23;164486.88;;;2.81;100.00
45255;BME280;30989;52.078;21.014;2023-02-01T13:55:57;164505.53;;;2.88;100.00
45255;BME280;30989;52.078;21.014;2023-02-01T13:58:38;164534.84;;;3.00;100.00
45255;BME280;30989;52.078;21.014;2023-02-01T14:03:56;164568.16;;;3.12;100.00
45255;BME280;30989;52.078;21.014;2023-02-01T14:11:52;164556.16;;;3.08;100.00
45255;BME280;30989;52.078;21.014;2023-02-01T14:19:35;164552.16;;;3.06;100.00
45255;BME280;30989;52.078;21.014;2023-02-01T14:24:58;164556.16;;;3.08;100.00
45255;BME280;30989;52.078;21.014;2023-02-01T14:27:26;164562.81;;;3.10;100.00
45255;BME280;30989;52.078;21.014;2023-02-01T14:29:57;164564.16;;;3.11;100.00
45255;BME280;30989;52.078;21.014;2023-02-01T14:32:35;164560.16;;;3.09;100.00
45255;BME280;30989;52.078;21.014;2023-02-01T14:35:06;164541.50;;;3.02;100.00
45255;BME280;30989;52.078;21.014;2023-02-01T14:37:40;164553.50;;;3.07;100.00
45255;BME280;30989;52.078;21.014;2023-02-01T14:47:50;164540.16;;;3.02;100.00
45255;BME280;30989;52.078;21.014;2023-02-01T14:50:25;164565.50;;;3.11;100.00
45255;BME280;30989;52.078;21.014;2023-02-01T14:53:06;164570.81;;;3.13;100.00